Time;durP1;ratioP1;P1;durP2;ratioP2;P2;SDS_P1;SDS_P2;PMS_P1;PMS_P2;Temp;Humidity;BMP_temperature;BMP_pressure;BME280_temperature;BME280_humidity;BME280_pressure;Samples;Min_cycle;Max_cycle;Signal;HPM_P1;HPM_P2
2022/06/26 00:02:25;;;;;;;4.00;3.60;;;;;;;;;;5060567;28;20187;-55
2022/06/26 00:04:52;;;;;;;4.43;3.73;;;;;;;;;;5042896;28;20655;-56
2022/06/26 00:07:18;;;;;;;3.47;3.17;;;;;;;;;;5057998;28;20566;-56
2022/06/26 00:09:44;;;;;;;3.43;3.13;;;;;;;;;;5059958;28;20308;-56
2022/06/26 00:12:10;;;;;;;3.83;3.27;;;;;;;;;;5070651;28;20562;-56
2022/06/26 00:14:36;;;;;;;3.70;3.07;;;;;;;;;;5041291;28;20185;-56
2022/06/26 00:17:02;;;;;;;3.43;3.13;;;;;;;;;;5064825;28;20489;-56
2022/06/26 00:19:28;;;;;;;3.30;3.10;;;;;;;;;;5060123;28;20212;-56
2022/06/26 00:21:55;;;;;;;3.63;3.00;;;;;;;;;;5057100;28;20196;-58
2022/06/26 00:24:21;;;;;;;3.23;2.93;;;;;;;;;;5062716;28;20257;-57
2022/06/26 00:26:47;;;;;;;2.60;2.40;;;;;;;;;;5069656;28;20243;-56
2022/06/26 00:29:13;;;;;;;4.13;3.00;;;;;;;;;;5089754;28;20207;-58
2022/06/26 00:31:39;;;;;;;4.10;3.40;;;;;;;;;;5084344;28;20190;-58
2022/06/26 00:34:05;;;;;;;3.73;2.83;;;;;;;;;;5080417;28;20677;-56
2022/06/26 00:36:31;;;;;;;3.60;3.30;;;;;;;;;;5064671;28;20620;-57
2022/06/26 00:38:57;;;;;;;3.60;2.97;;;;;;;;;;5062425;28;20182;-57
2022/06/26 00:41:23;;;;;;;6.10;2.73;;;;;;;;;;5061993;28;20335;-57
2022/06/26 00:43:50;;;;;;;3.30;3.00;;;;;;;;;;5082462;28;20906;-58
2022/06/26 00:46:16;;;;;;;3.30;2.93;;;;;;;;;;5079308;28;20203;-57
2022/06/26 00:48:42;;;;;;;4.07;2.90;;;;;;;;;;5080266;28;20188;-58
2022/06/26 00:51:08;;;;;;;3.63;2.70;;;;;;;;;;5080012;28;20260;-58
2022/06/26 00:53:34;;;;;;;3.27;2.70;;;;;;;;;;5081420;28;20729;-58
2022/06/26 00:56:00;;;;;;;2.83;2.50;;;;;;;;;;5081054;28;20181;-58
2022/06/26 00:58:27;;;;;;;3.30;3.00;;;;;;;;;;5086822;28;20180;-57
2022/06/26 01:00:53;;;;;;;3.07;2.87;;;;;;;;;;5084410;28;20685;-57
2022/06/26 01:03:19;;;;;;;3.37;2.70;;;;;;;;;;5082628;28;20191;-57
2022/06/26 01:05:45;;;;;;;3.00;2.70;;;;;;;;;;5086918;28;20296;-57
2022/06/26 01:08:11;;;;;;;2.60;2.40;;;;;;;;;;5061640;28;20659;-57
2022/06/26 01:10:38;;;;;;;3.20;2.90;;;;;;;;;;5073357;28;20601;-58
2022/06/26 01:13:06;;;;;;;3.57;3.10;;;;;;;;;;5081830;28;20232;-58
2022/06/26 01:15:32;;;;;;;2.87;2.53;;;;;;;;;;5087608;28;20653;-58
2022/06/26 01:17:59;;;;;;;4.33;2.80;;;;;;;;;;5085749;28;20182;-57
2022/06/26 01:20:25;;;;;;;2.73;2.53;;;;;;;;;;5092798;28;20202;-58
2022/06/26 01:22:57;;;;;;;2.50;2.30;;;;;;;;;;5084402;28;20653;-58
2022/06/26 01:25:23;;;;;;;2.83;2.57;;;;;;;;;;5083149;28;20178;-58
2022/06/26 01:27:49;;;;;;;2.77;2.57;;;;;;;;;;5074468;28;20798;-58
2022/06/26 01:30:15;;;;;;;5.23;4.87;;;;;;;;;;5076071;28;20181;-57
2022/06/26 01:32:41;;;;;;;2.97;2.77;;;;;;;;;;5073615;28;20259;-58
2022/06/26 01:35:07;;;;;;;2.60;2.40;;;;;;;;;;5067056;28;20280;-57
2022/06/26 01:37:33;;;;;;;2.93;2.60;;;;;;;;;;5068839;28;20179;-57
2022/06/26 01:40:00;;;;;;;2.60;2.40;;;;;;;;;;5069809;28;20238;-57
2022/06/26 01:42:26;;;;;;;3.03;2.27;;;;;;;;;;5073368;28;20915;-57
2022/06/26 01:44:52;;;;;;;3.20;2.90;;;;;;;;;;5062645;28;20273;-58
2022/06/26 01:47:18;;;;;;;3.00;2.53;;;;;;;;;;5071390;28;20490;-57
2022/06/26 01:49:44;;;;;;;2.80;2.60;;;;;;;;;;5068014;28;20196;-59
2022/06/26 01:52:10;;;;;;;2.70;2.50;;;;;;;;;;5064110;28;20202;-58
2022/06/26 01:54:36;;;;;;;2.80;2.60;;;;;;;;;;5066690;28;20559;-58
2022/06/26 01:57:02;;;;;;;2.80;2.60;;;;;;;;;;5074132;28;20260;-58
2022/06/26 01:59:28;;;;;;;3.10;2.87;;;;;;;;;;5076677;28;20375;-56
2022/06/26 02:01:54;;;;;;;2.93;2.60;;;;;;;;;;5052227;28;20422;-57
2022/06/26 02:04:20;;;;;;;3.20;2.90;;;;;;;;;;5067502;28;20202;-58
2022/06/26 02:06:46;;;;;;;3.37;3.07;;;;;;;;;;5070520;28;20250;-57
2022/06/26 02:13:36;;;;;;;3.20;2.90;;;;;;;;;;5072727;28;20175;-58
2022/06/26 02:14:43;;;;;;;3.43;3.07;;;;;;;;;;5068363;28;20632;-57
2022/06/26 02:17:13;;;;;;;3.17;2.87;;;;;;;;;;5061601;28;20175;-57
2022/06/26 02:19:39;;;;;;;3.30;3.00;;;;;;;;;;5066495;28;20556;-58
2022/06/26 02:22:05;;;;;;;3.47;3.00;;;;;;;;;;5072479;28;20199;-58
2022/06/26 02:24:31;;;;;;;3.03;2.83;;;;;;;;;;5063957;28;20172;-57
2022/06/26 02:26:57;;;;;;;3.83;2.93;;;;;;;;;;5076010;28;20248;-58
2022/06/26 02:29:23;;;;;;;3.03;2.83;;;;;;;;;;5087618;28;20179;-57
2022/06/26 02:31:49;;;;;;;3.50;3.20;;;;;;;;;;5087990;28;20170;-57
2022/06/26 02:34:15;;;;;;;4.07;3.70;;;;;;;;;;5086998;28;20270;-58
2022/06/26 02:36:41;;;;;;;3.50;3.20;;;;;;;;;;5087391;28;20188;-58
2022/06/26 02:39:07;;;;;;;3.50;3.20;;;;;;;;;;5085517;28;20184;-58
2022/06/26 02:41:33;;;;;;;3.77;3.47;;;;;;;;;;5087141;28;20320;-58
2022/06/26 02:43:59;;;;;;;3.83;3.43;;;;;;;;;;5089220;28;20168;-58
2022/06/26 02:46:25;;;;;;;3.27;3.07;;;;;;;;;;5087872;28;20183;-58
2022/06/26 02:48:51;;;;;;;3.63;3.37;;;;;;;;;;5061787;28;20180;-58
2022/06/26 02:51:19;;;;;;;3.57;3.27;;;;;;;;;;5083648;28;20211;-59
2022/06/26 02:53:45;;;;;;;3.30;3.00;;;;;;;;;;5062992;28;20640;-58
2022/06/26 02:56:11;;;;;;;5.63;5.13;;;;;;;;;;5086350;28;20211;-57
2022/06/26 02:58:37;;;;;;;3.03;2.80;;;;;;;;;;5087989;28;20654;-59
2022/06/26 03:01:04;;;;;;;3.67;3.43;;;;;;;;;;5080853;28;20203;-59
2022/06/26 03:03:30;;;;;;;3.30;3.10;;;;;;;;;;5088092;28;20187;-58
2022/06/26 03:05:56;;;;;;;3.63;3.40;;;;;;;;;;5066453;28;20284;-59
2022/06/26 03:08:22;;;;;;;3.40;3.10;;;;;;;;;;5084860;28;20180;-59
2022/06/26 03:10:50;;;;;;;4.23;3.40;;;;;;;;;;5067641;28;20180;-59
2022/06/26 03:13:16;;;;;;;3.30;3.10;;;;;;;;;;5087645;28;20448;-58
2022/06/26 03:15:42;;;;;;;3.37;3.17;;;;;;;;;;5073184;28;20626;-58
2022/06/26 03:18:08;;;;;;;4.43;4.13;;;;;;;;;;5104281;27;20182;-58
2022/06/26 03:20:34;;;;;;;4.20;3.07;;;;;;;;;;5104651;28;20681;-58
2022/06/26 03:23:00;;;;;;;3.30;3.10;;;;;;;;;;5103699;27;20527;-59
2022/06/26 03:25:26;;;;;;;3.50;3.17;;;;;;;;;;5105283;28;20171;-58
2022/06/26 03:27:52;;;;;;;4.03;3.73;;;;;;;;;;5102513;27;20709;-58
2022/06/26 03:30:19;;;;;;;3.10;2.80;;;;;;;;;;5110133;27;20171;-58
2022/06/26 03:32:45;;;;;;;3.10;2.90;;;;;;;;;;5107904;28;20743;-58
2022/06/26 03:35:11;;;;;;;3.20;3.00;;;;;;;;;;5105504;28;20606;-58
2022/06/26 03:37:40;;;;;;;3.03;2.83;;;;;;;;;;5104430;28;20172;-58
2022/06/26 03:40:06;;;;;;;3.37;3.10;;;;;;;;;;5107076;27;20513;-57
2022/06/26 03:42:33;;;;;;;2.80;2.60;;;;;;;;;;5105198;27;20210;-58
2022/06/26 03:44:59;;;;;;;3.40;3.10;;;;;;;;;;5108932;27;20650;-59
2022/06/26 03:47:30;;;;;;;2.93;2.73;;;;;;;;;;5085426;27;20529;-59
2022/06/26 03:49:56;;;;;;;3.13;2.93;;;;;;;;;;5086882;28;20187;-58
2022/06/26 03:52:23;;;;;;;3.43;3.13;;;;;;;;;;5081107;27;20206;-58
2022/06/26 03:54:49;;;;;;;2.83;2.63;;;;;;;;;;5105218;27;20284;-57
2022/06/26 03:57:15;;;;;;;3.67;3.37;;;;;;;;;;5103668;27;20209;-58
2022/06/26 03:59:41;;;;;;;4.13;2.60;;;;;;;;;;5106171;27;20198;-58
2022/06/26 04:02:08;;;;;;;3.67;3.33;;;;;;;;;;5101245;27;20198;-59
2022/06/26 04:04:34;;;;;;;3.10;2.90;;;;;;;;;;5102318;27;20665;-58
2022/06/26 04:07:01;;;;;;;3.30;3.10;;;;;;;;;;5100559;28;20182;-59
2022/06/26 04:09:27;;;;;;;3.30;3.00;;;;;;;;;;5108669;27;20295;-58
2022/06/26 04:11:53;;;;;;;4.53;4.13;;;;;;;;;;5103220;27;20574;-58
2022/06/26 04:14:19;;;;;;;5.03;3.30;;;;;;;;;;5107267;27;20549;-58
2022/06/26 04:16:45;;;;;;;3.53;3.10;;;;;;;;;;5104669;28;20178;-58
2022/06/26 04:19:11;;;;;;;4.37;3.03;;;;;;;;;;5107739;28;20266;-58
2022/06/26 04:21:37;;;;;;;3.67;3.37;;;;;;;;;;5101653;28;20296;-58
2022/06/26 04:24:03;;;;;;;3.63;3.33;;;;;;;;;;5104507;27;20189;-58
2022/06/26 04:26:29;;;;;;;3.20;2.90;;;;;;;;;;5100163;27;20276;-58
2022/06/26 04:29:09;;;;;;;3.40;3.10;;;;;;;;;;5106516;27;20195;-58
2022/06/26 04:31:35;;;;;;;4.63;3.40;;;;;;;;;;5100421;27;20558;-58
2022/06/26 04:34:01;;;;;;;3.57;3.27;;;;;;;;;;5091419;27;20501;-57
2022/06/26 04:36:27;;;;;;;4.30;3.10;;;;;;;;;;5101720;27;20270;-58
2022/06/26 04:38:53;;;;;;;3.77;3.43;;;;;;;;;;5100186;27;20308;-57
2022/06/26 04:41:31;;;;;;;3.60;3.33;;;;;;;;;;5102122;27;20676;-57
2022/06/26 04:43:58;;;;;;;3.07;2.87;;;;;;;;;;5103931;27;20244;-58
2022/06/26 04:46:24;;;;;;;4.47;3.60;;;;;;;;;;5101937;27;20260;-58
2022/06/26 04:48:51;;;;;;;3.30;3.00;;;;;;;;;;5088823;28;20176;-58
2022/06/26 04:51:17;;;;;;;4.00;3.70;;;;;;;;;;5100615;28;20536;-58
2022/06/26 04:53:43;;;;;;;4.27;3.63;;;;;;;;;;5100804;28;20240;-57
2022/06/26 04:56:09;;;;;;;3.43;3.13;;;;;;;;;;5106091;28;20279;-58
2022/06/26 04:58:35;;;;;;;4.97;3.50;;;;;;;;;;5104953;28;20239;-58
2022/06/26 05:01:02;;;;;;;4.77;3.90;;;;;;;;;;5102934;28;20673;-59
2022/06/26 05:03:29;;;;;;;3.27;2.97;;;;;;;;;;5103718;28;20615;-58
2022/06/26 05:05:55;;;;;;;3.70;3.23;;;;;;;;;;5104141;28;20487;-58
2022/06/26 05:08:21;;;;;;;3.30;3.00;;;;;;;;;;5100462;28;20187;-58
2022/06/26 05:10:47;;;;;;;3.40;3.10;;;;;;;;;;5100657;28;20258;-59
2022/06/26 05:13:13;;;;;;;3.53;3.23;;;;;;;;;;5103341;28;20182;-58
2022/06/26 05:15:39;;;;;;;3.43;3.20;;;;;;;;;;5106379;28;20206;-58
2022/06/26 05:18:05;;;;;;;3.83;3.50;;;;;;;;;;5100612;28;20621;-58
2022/06/26 05:20:31;;;;;;;3.57;3.27;;;;;;;;;;5102993;28;20204;-58
2022/06/26 05:22:57;;;;;;;4.10;3.70;;;;;;;;;;5080661;28;20649;-59
2022/06/26 05:25:23;;;;;;;4.23;3.30;;;;;;;;;;5083645;28;20618;-59
2022/06/26 05:27:49;;;;;;;5.03;3.10;;;;;;;;;;5072146;28;20248;-59
2022/06/26 05:30:16;;;;;;;3.77;2.87;;;;;;;;;;5081442;28;20186;-58
2022/06/26 05:32:42;;;;;;;3.47;3.17;;;;;;;;;;5081214;28;20285;-58
2022/06/26 05:35:08;;;;;;;3.70;2.83;;;;;;;;;;5082940;28;20177;-58
2022/06/26 05:37:34;;;;;;;3.50;3.20;;;;;;;;;;5074038;28;20185;-58
2022/06/26 05:40:00;;;;;;;3.50;3.20;;;;;;;;;;5084670;28;20176;-59
2022/06/26 05:42:27;;;;;;;4.17;2.87;;;;;;;;;;5101721;28;20611;-58
2022/06/26 05:44:53;;;;;;;3.77;2.87;;;;;;;;;;5085639;28;20207;-59
2022/06/26 05:47:19;;;;;;;3.80;3.43;;;;;;;;;;5086301;28;20630;-59
2022/06/26 05:49:45;;;;;;;3.13;2.83;;;;;;;;;;5081516;28;20227;-59
2022/06/26 05:52:11;;;;;;;3.50;3.20;;;;;;;;;;5058682;28;20272;-59
2022/06/26 05:54:37;;;;;;;4.47;2.80;;;;;;;;;;5086019;28;20300;-59
2022/06/26 05:57:04;;;;;;;3.20;2.90;;;;;;;;;;5084627;28;20669;-60
2022/06/26 05:59:30;;;;;;;3.63;3.27;;;;;;;;;;5085149;28;20960;-58
2022/06/26 06:01:56;;;;;;;2.90;2.70;;;;;;;;;;5085005;28;20530;-58
2022/06/26 06:04:22;;;;;;;3.23;2.93;;;;;;;;;;5087013;28;20538;-58
2022/06/26 06:06:48;;;;;;;4.53;3.20;;;;;;;;;;5080457;28;20179;-57
2022/06/26 06:09:14;;;;;;;4.00;3.53;;;;;;;;;;5089615;28;20187;-58
2022/06/26 06:11:40;;;;;;;3.40;3.10;;;;;;;;;;5090766;28;20213;-58
2022/06/26 06:14:06;;;;;;;3.23;2.77;;;;;;;;;;5085784;28;20251;-58
2022/06/26 06:16:32;;;;;;;3.33;3.00;;;;;;;;;;5086056;28;20180;-58
2022/06/26 06:18:58;;;;;;;3.87;2.87;;;;;;;;;;5076337;28;20228;-57
2022/06/26 06:21:24;;;;;;;3.43;3.13;;;;;;;;;;5082070;28;20200;-58
2022/06/26 06:23:50;;;;;;;3.53;2.67;;;;;;;;;;5086500;28;20261;-57
2022/06/26 06:26:17;;;;;;;4.43;3.27;;;;;;;;;;5063136;28;20172;-58
2022/06/26 06:28:43;;;;;;;4.07;3.30;;;;;;;;;;5082126;28;20591;-58
2022/06/26 06:31:09;;;;;;;3.00;2.70;;;;;;;;;;5081956;28;20187;-57
2022/06/26 06:33:35;;;;;;;3.37;2.73;;;;;;;;;;5063828;28;20437;-59
2022/06/26 06:36:01;;;;;;;6.00;3.70;;;;;;;;;;5083549;28;20179;-58
2022/06/26 06:38:27;;;;;;;5.63;3.47;;;;;;;;;;5085960;28;20198;-58
2022/06/26 06:40:53;;;;;;;4.13;3.30;;;;;;;;;;5085608;28;20254;-57
2022/06/26 06:43:19;;;;;;;4.07;3.70;;;;;;;;;;5088222;28;20176;-58
2022/06/26 06:45:45;;;;;;;3.50;2.90;;;;;;;;;;5086474;28;20313;-58
2022/06/26 06:48:12;;;;;;;3.17;2.87;;;;;;;;;;5080372;28;20172;-57
2022/06/26 06:50:38;;;;;;;3.60;3.30;;;;;;;;;;5084043;28;20195;-54
2022/06/26 06:53:04;;;;;;;3.63;3.30;;;;;;;;;;5078982;28;20183;-57
2022/06/26 06:55:30;;;;;;;4.70;3.27;;;;;;;;;;5085047;28;20194;-56
2022/06/26 06:57:57;;;;;;;5.93;3.50;;;;;;;;;;5079625;28;20184;-58
2022/06/26 07:00:23;;;;;;;6.93;3.73;;;;;;;;;;5079792;28;20186;-57
2022/06/26 07:02:49;;;;;;;5.37;3.23;;;;;;;;;;5079143;28;20205;-56
2022/06/26 07:05:19;;;;;;;5.20;3.50;;;;;;;;;;5086551;28;20168;-56
2022/06/26 07:07:45;;;;;;;3.70;3.20;;;;;;;;;;5095505;28;20550;-56
2022/06/26 07:10:11;;;;;;;3.10;2.80;;;;;;;;;;5089920;28;20182;-56
2022/06/26 07:12:37;;;;;;;5.33;3.10;;;;;;;;;;5083727;28;20557;-56
2022/06/26 07:15:04;;;;;;;2.93;2.73;;;;;;;;;;5083877;28;20315;-56
2022/06/26 07:17:30;;;;;;;3.77;3.00;;;;;;;;;;5084084;28;20177;-56
2022/06/26 07:19:58;;;;;;;4.07;2.73;;;;;;;;;;5082133;28;20733;-56
2022/06/26 07:22:24;;;;;;;3.33;2.97;;;;;;;;;;5081639;28;20698;-57
2022/06/26 07:24:50;;;;;;;3.10;2.70;;;;;;;;;;5081538;28;20543;-57
2022/06/26 07:27:17;;;;;;;4.10;3.50;;;;;;;;;;5084062;28;20281;-58
2022/06/26 07:29:43;;;;;;;7.57;4.20;;;;;;;;;;5068231;28;20282;-57
2022/06/26 07:32:09;;;;;;;7.00;3.80;;;;;;;;;;5077284;28;20185;-58
2022/06/26 07:34:35;;;;;;;4.10;3.70;;;;;;;;;;5063903;28;20670;-57
2022/06/26 07:37:01;;;;;;;5.43;4.40;;;;;;;;;;5075861;28;20621;-58
2022/06/26 07:39:27;;;;;;;4.63;3.60;;;;;;;;;;5083430;28;20520;-58
2022/06/26 07:41:53;;;;;;;4.43;3.53;;;;;;;;;;5090555;28;20253;-59
2022/06/26 07:44:19;;;;;;;4.70;3.80;;;;;;;;;;5089054;28;20177;-58
2022/06/26 07:46:45;;;;;;;5.60;3.67;;;;;;;;;;5078495;28;20677;-58
2022/06/26 07:49:12;;;;;;;3.77;3.37;;;;;;;;;;5072067;28;20260;-57
2022/06/26 07:51:38;;;;;;;4.47;3.23;;;;;;;;;;5071489;28;21057;-57
2022/06/26 07:54:05;;;;;;;8.30;4.00;;;;;;;;;;5075314;28;20182;-58
2022/06/26 07:56:31;;;;;;;5.00;3.87;;;;;;;;;;5081607;28;20629;-58
2022/06/26 07:58:58;;;;;;;5.87;3.80;;;;;;;;;;5085092;28;20201;-58
2022/06/26 08:01:24;;;;;;;5.70;3.30;;;;;;;;;;5079528;28;20294;-57
2022/06/26 08:03:50;;;;;;;3.60;3.30;;;;;;;;;;5076037;28;20185;-58
2022/06/26 08:06:17;;;;;;;5.60;3.70;;;;;;;;;;5065708;28;20184;-58
2022/06/26 08:08:43;;;;;;;5.13;3.00;;;;;;;;;;5082213;28;20183;-57
2022/06/26 08:11:10;;;;;;;4.77;2.90;;;;;;;;;;5071108;28;20268;-58
2022/06/26 08:13:36;;;;;;;5.17;3.33;;;;;;;;;;5063667;28;20718;-58
2022/06/26 08:16:02;;;;;;;3.97;3.33;;;;;;;;;;5077520;28;20613;-57
2022/06/26 08:18:28;;;;;;;5.10;3.10;;;;;;;;;;5075346;28;20470;-57
2022/06/26 08:20:54;;;;;;;3.80;3.40;;;;;;;;;;5073387;28;20200;-58
2022/06/26 08:23:20;;;;;;;3.30;2.97;;;;;;;;;;5063771;28;20204;-56
2022/06/26 08:25:46;;;;;;;3.03;2.73;;;;;;;;;;5069466;28;20176;-58
2022/06/26 08:28:12;;;;;;;4.00;3.20;;;;;;;;;;5062527;28;20220;-58
2022/06/26 08:30:38;;;;;;;3.87;3.10;;;;;;;;;;5062162;28;20218;-56
2022/06/26 08:33:05;;;;;;;3.53;2.77;;;;;;;;;;5061252;28;20181;-56
2022/06/26 08:35:31;;;;;;;3.30;2.63;;;;;;;;;;5064395;28;20706;-57
2022/06/26 08:37:57;;;;;;;4.47;2.83;;;;;;;;;;5062703;28;20184;-57
2022/06/26 08:40:23;;;;;;;2.67;2.47;;;;;;;;;;5063650;28;20199;-57
2022/06/26 08:42:52;;;;;;;2.53;2.33;;;;;;;;;;5060331;28;20222;-58
2022/06/26 08:45:19;;;;;;;2.83;2.63;;;;;;;;;;5060398;28;20179;-58
2022/06/26 08:47:48;;;;;;;2.93;2.40;;;;;;;;;;5063264;28;20530;-57
2022/06/26 08:50:14;;;;;;;3.70;3.37;;;;;;;;;;5062900;28;20239;-56
2022/06/26 08:52:41;;;;;;;2.50;2.30;;;;;;;;;;5060122;28;20177;-56
2022/06/26 08:55:08;;;;;;;13.43;3.97;;;;;;;;;;5062225;28;20298;-56
2022/06/26 08:57:34;;;;;;;11.17;3.53;;;;;;;;;;5061012;28;20284;-56
2022/06/26 09:00:00;;;;;;;6.53;3.50;;;;;;;;;;5046429;28;20211;-56
2022/06/26 09:02:27;;;;;;;4.80;2.90;;;;;;;;;;5063815;28;20204;-56
2022/06/26 09:04:53;;;;;;;4.83;2.40;;;;;;;;;;5064552;28;20272;-57
2022/06/26 09:07:19;;;;;;;7.13;3.60;;;;;;;;;;5058156;28;20182;-56
2022/06/26 09:09:45;;;;;;;5.13;2.43;;;;;;;;;;5044875;28;20516;-57
2022/06/26 09:12:11;;;;;;;3.50;2.60;;;;;;;;;;5063284;28;20179;-57
2022/06/26 09:14:37;;;;;;;5.20;3.03;;;;;;;;;;5063738;28;20645;-56
2022/06/26 09:17:05;;;;;;;3.37;2.73;;;;;;;;;;5060443;28;20341;-56
2022/06/26 09:19:36;;;;;;;2.60;2.40;;;;;;;;;;5056766;28;20171;-55
2022/06/26 09:22:06;;;;;;;3.60;2.57;;;;;;;;;;5059971;28;20209;-56
2022/06/26 09:24:36;;;;;;;3.33;2.50;;;;;;;;;;5061939;28;20646;-56
2022/06/26 09:27:15;;;;;;;2.20;2.10;;;;;;;;;;5063832;28;20743;-56
2022/06/26 09:29:43;;;;;;;3.87;2.43;;;;;;;;;;5083725;28;20183;-55
2022/06/26 09:32:14;;;;;;;2.90;2.60;;;;;;;;;;5085874;28;20177;-55
2022/06/26 09:34:45;;;;;;;3.53;2.80;;;;;;;;;;5094366;28;20186;-56
2022/06/26 09:37:11;;;;;;;4.10;3.30;;;;;;;;;;5081025;28;20167;-55
2022/06/26 09:39:37;;;;;;;3.07;2.60;;;;;;;;;;5081612;28;20646;-55
2022/06/26 09:42:04;;;;;;;2.50;2.30;;;;;;;;;;5086975;28;20200;-54
2022/06/26 09:44:31;;;;;;;3.10;2.70;;;;;;;;;;5084335;28;20175;-55
2022/06/26 09:46:57;;;;;;;3.13;2.60;;;;;;;;;;5084345;28;20618;-54
2022/06/26 09:49:23;;;;;;;3.93;2.80;;;;;;;;;;5082662;28;20638;-53
2022/06/26 09:51:49;;;;;;;2.90;2.43;;;;;;;;;;5079572;28;20214;-55
2022/06/26 09:54:15;;;;;;;3.00;2.60;;;;;;;;;;5083792;28;20178;-55
2022/06/26 09:56:48;;;;;;;3.20;2.70;;;;;;;;;;5095642;28;20178;-55
2022/06/26 09:59:14;;;;;;;3.00;2.20;;;;;;;;;;5087713;28;20178;-55
2022/06/26 10:07:11;;;;;;;2.93;2.20;;;;;;;;;;5079393;28;21385;-55
2022/06/26 10:09:37;;;;;;;3.30;2.40;;;;;;;;;;5081284;28;20546;-55
2022/06/26 10:12:03;;;;;;;2.80;2.50;;;;;;;;;;5087063;28;20656;-55
2022/06/26 10:14:32;;;;;;;2.50;2.30;;;;;;;;;;5080926;28;20541;-54
2022/06/26 10:17:13;;;;;;;3.10;2.80;;;;;;;;;;5081394;28;20180;-55
2022/06/26 10:19:46;;;;;;;2.87;2.50;;;;;;;;;;5087336;28;20491;-54
2022/06/26 10:22:15;;;;;;;2.70;2.50;;;;;;;;;;5081125;28;22507;-54
2022/06/26 10:24:50;;;;;;;4.33;3.03;;;;;;;;;;5085460;28;20260;-53
2022/06/26 10:27:16;;;;;;;4.10;2.50;;;;;;;;;;5085568;27;20222;-54
2022/06/26 10:29:49;;;;;;;2.73;2.53;;;;;;;;;;5080694;28;20596;-53
2022/06/26 10:32:22;;;;;;;2.90;2.60;;;;;;;;;;5063162;28;20679;-54
2022/06/26 10:34:54;;;;;;;3.10;2.80;;;;;;;;;;5079209;28;20191;-54
2022/06/26 10:37:20;;;;;;;3.03;2.80;;;;;;;;;;5076712;28;20578;-54
2022/06/26 10:39:49;;;;;;;2.33;2.10;;;;;;;;;;5084556;28;20186;-53
2022/06/26 10:45:04;;;;;;;2.57;2.33;;;;;;;;;;5083941;28;20174;-53
2022/06/26 10:47:47;;;;;;;2.90;2.57;;;;;;;;;;5069038;28;20762;-53
2022/06/26 10:50:24;;;;;;;2.37;2.27;;;;;;;;;;5084859;28;20179;-53
2022/06/26 10:52:50;;;;;;;3.57;2.50;;;;;;;;;;5074273;28;20194;-54
2022/06/26 10:55:16;;;;;;;4.67;2.60;;;;;;;;;;5064287;28;20176;-52
2022/06/26 10:57:42;;;;;;;2.93;2.63;;;;;;;;;;5066375;28;20270;-53
2022/06/26 11:00:13;;;;;;;3.00;2.70;;;;;;;;;;5072926;28;20178;-53
2022/06/26 11:02:40;;;;;;;2.70;2.37;;;;;;;;;;5080749;28;20213;-53
2022/06/26 11:05:07;;;;;;;4.10;2.50;;;;;;;;;;5084215;28;20203;-54
2022/06/26 11:07:43;;;;;;;3.30;2.80;;;;;;;;;;5079975;28;20620;-53
2022/06/26 11:10:11;;;;;;;3.00;2.70;;;;;;;;;;5076697;28;20537;-53
2022/06/26 11:12:41;;;;;;;3.17;2.37;;;;;;;;;;5070468;28;20277;-52
2022/06/26 11:15:08;;;;;;;2.63;2.23;;;;;;;;;;5068723;28;20277;-54
2022/06/26 11:17:34;;;;;;;2.33;2.13;;;;;;;;;;5083084;28;20259;-53
2022/06/26 11:22:45;;;;;;;3.53;2.53;;;;;;;;;;5070599;28;20622;-56
2022/06/26 11:25:12;;;;;;;2.63;2.43;;;;;;;;;;5081612;28;20263;-55
2022/06/26 11:27:38;;;;;;;3.27;2.60;;;;;;;;;;5081423;28;20231;-55
2022/06/26 11:30:04;;;;;;;3.00;2.37;;;;;;;;;;5082942;28;20644;-55
2022/06/26 11:32:30;;;;;;;2.83;2.60;;;;;;;;;;5075459;28;20520;-57
2022/06/26 11:34:57;;;;;;;3.83;2.80;;;;;;;;;;5086124;28;20266;-55
2022/06/26 11:37:36;;;;;;;3.23;2.60;;;;;;;;;;5083648;28;20262;-56
2022/06/26 11:40:15;;;;;;;4.37;3.10;;;;;;;;;;5082928;28;20188;-55
2022/06/26 11:42:41;;;;;;;5.73;2.80;;;;;;;;;;5072082;28;20688;-54
2022/06/26 11:45:08;;;;;;;3.43;3.13;;;;;;;;;;5077528;28;20822;-55
2022/06/26 11:47:36;;;;;;;4.03;3.10;;;;;;;;;;5068903;28;20630;-55
2022/06/26 11:50:02;;;;;;;5.90;3.17;;;;;;;;;;5083585;28;20316;-56
2022/06/26 11:52:28;;;;;;;3.27;2.83;;;;;;;;;;5068032;28;20176;-55
2022/06/26 11:55:01;;;;;;;2.97;2.70;;;;;;;;;;5060668;28;20881;-55
2022/06/26 11:57:28;;;;;;;5.60;3.60;;;;;;;;;;5081296;28;20330;-55
2022/06/26 11:59:54;;;;;;;2.87;2.67;;;;;;;;;;5070470;28;20188;-56
2022/06/26 12:02:24;;;;;;;5.90;4.37;;;;;;;;;;5077071;28;20195;-56
2022/06/26 12:04:57;;;;;;;5.17;3.07;;;;;;;;;;5071016;28;20231;-56
2022/06/26 12:07:23;;;;;;;3.10;2.77;;;;;;;;;;5080587;28;20175;-56
2022/06/26 12:09:49;;;;;;;5.63;2.90;;;;;;;;;;5083033;28;20172;-56
2022/06/26 12:12:15;;;;;;;6.73;3.10;;;;;;;;;;5081086;28;20172;-55
2022/06/26 12:14:54;;;;;;;4.97;2.50;;;;;;;;;;5076263;28;20937;-56
2022/06/26 12:17:24;;;;;;;4.77;2.63;;;;;;;;;;5072727;28;20175;-56
2022/06/26 12:19:51;;;;;;;2.90;2.60;;;;;;;;;;5075758;28;20251;-55
2022/06/26 12:22:34;;;;;;;5.83;4.57;;;;;;;;;;5076310;28;20610;-56
2022/06/26 12:25:00;;;;;;;5.73;3.33;;;;;;;;;;5082569;28;21873;-55
2022/06/26 12:27:36;;;;;;;4.23;2.87;;;;;;;;;;5072930;28;20200;-55
2022/06/26 12:30:15;;;;;;;5.03;3.43;;;;;;;;;;5061176;28;21121;-56
2022/06/26 12:32:41;;;;;;;4.80;2.70;;;;;;;;;;5060000;28;20800;-55
2022/06/26 12:35:07;;;;;;;4.63;2.70;;;;;;;;;;5064054;28;20188;-55
2022/06/26 12:37:34;;;;;;;5.60;3.20;;;;;;;;;;5040692;28;20433;-57
2022/06/26 12:40:00;;;;;;;5.43;3.37;;;;;;;;;;5059605;28;20211;-55
2022/06/26 12:42:26;;;;;;;4.30;3.23;;;;;;;;;;5062475;28;20197;-54
2022/06/26 12:44:52;;;;;;;3.03;2.83;;;;;;;;;;5061308;28;21005;-54
2022/06/26 12:47:19;;;;;;;3.37;2.80;;;;;;;;;;5056212;28;20180;-54
2022/06/26 12:49:45;;;;;;;2.70;2.50;;;;;;;;;;5060309;28;20184;-56
2022/06/26 12:52:12;;;;;;;3.37;3.07;;;;;;;;;;5062494;28;20623;-55
2022/06/26 12:54:38;;;;;;;3.90;2.60;;;;;;;;;;5064316;28;20322;-56
2022/06/26 12:57:04;;;;;;;3.00;2.80;;;;;;;;;;5060044;28;20181;-54
2022/06/26 12:59:31;;;;;;;3.10;2.60;;;;;;;;;;5058910;28;20222;-54
2022/06/26 13:01:58;;;;;;;3.43;2.70;;;;;;;;;;5061174;28;20829;-54
2022/06/26 13:04:24;;;;;;;2.87;2.67;;;;;;;;;;5060072;28;20175;-54
2022/06/26 13:06:50;;;;;;;6.03;2.87;;;;;;;;;;5055097;28;20218;-54
2022/06/26 13:09:16;;;;;;;3.83;3.10;;;;;;;;;;5057776;28;20184;-55
2022/06/26 13:11:43;;;;;;;4.70;2.70;;;;;;;;;;5064525;28;20519;-54
2022/06/26 13:14:09;;;;;;;3.80;3.03;;;;;;;;;;5045125;28;20173;-55
2022/06/26 13:16:37;;;;;;;6.10;3.43;;;;;;;;;;5065287;28;20627;-55
2022/06/26 13:19:03;;;;;;;10.37;3.10;;;;;;;;;;5064138;28;20164;-53
2022/06/26 13:21:29;;;;;;;3.27;2.97;;;;;;;;;;5065086;28;20210;-54
2022/06/26 13:23:56;;;;;;;3.70;2.90;;;;;;;;;;5076767;28;20686;-54
2022/06/26 13:26:22;;;;;;;3.07;2.77;;;;;;;;;;5065390;28;20176;-55
2022/06/26 13:28:48;;;;;;;4.13;3.30;;;;;;;;;;5076733;28;20796;-54
2022/06/26 13:31:14;;;;;;;5.90;3.10;;;;;;;;;;5073950;28;20190;-54
2022/06/26 13:33:40;;;;;;;4.00;3.23;;;;;;;;;;5085064;28;20254;-54
2022/06/26 13:36:06;;;;;;;4.20;3.20;;;;;;;;;;5091635;28;20696;-54
2022/06/26 13:38:35;;;;;;;4.53;3.03;;;;;;;;;;5083802;28;20286;-54
2022/06/26 13:41:01;;;;;;;4.83;2.90;;;;;;;;;;5092674;28;20202;-55
2022/06/26 13:43:28;;;;;;;7.10;3.13;;;;;;;;;;5085722;28;20675;-53
2022/06/26 13:45:54;;;;;;;3.07;2.77;;;;;;;;;;5089387;28;20188;-54
2022/06/26 13:48:21;;;;;;;2.70;2.50;;;;;;;;;;5084190;28;20669;-53
2022/06/26 13:50:47;;;;;;;2.93;2.30;;;;;;;;;;5090502;28;20381;-55
2022/06/26 13:53:13;;;;;;;5.67;2.80;;;;;;;;;;5082156;28;20175;-54
2022/06/26 13:55:39;;;;;;;3.30;2.97;;;;;;;;;;5092131;28;20216;-54
2022/06/26 13:58:05;;;;;;;3.90;2.30;;;;;;;;;;5086182;28;20180;-54
2022/06/26 14:00:32;;;;;;;3.37;2.40;;;;;;;;;;5089037;28;20178;-53
2022/06/26 14:02:58;;;;;;;4.67;2.73;;;;;;;;;;5079929;28;20235;-54
2022/06/26 14:05:24;;;;;;;2.90;2.53;;;;;;;;;;5086778;28;20171;-54
2022/06/26 14:07:50;;;;;;;2.83;2.63;;;;;;;;;;5082363;28;20168;-54
2022/06/26 14:10:17;;;;;;;3.57;2.60;;;;;;;;;;5084566;28;20164;-53
2022/06/26 14:12:43;;;;;;;4.23;2.43;;;;;;;;;;5074287;28;20187;-55
2022/06/26 14:15:09;;;;;;;2.53;2.33;;;;;;;;;;5086964;28;20240;-53
2022/06/26 14:17:39;;;;;;;3.13;2.23;;;;;;;;;;5095308;28;20664;-54
2022/06/26 14:20:05;;;;;;;2.77;2.57;;;;;;;;;;5088618;28;20199;-53
2022/06/26 14:28:15;;;;;;;5.43;2.90;;;;;;;;;;4810639;28;8112244;-55
2022/06/26 14:30:42;;;;;;;3.53;2.27;;;;;;;;;;5078744;28;20244;-54
2022/06/26 14:33:09;;;;;;;3.07;2.67;;;;;;;;;;5086116;28;20175;-55
2022/06/26 14:35:35;;;;;;;3.90;3.23;;;;;;;;;;5072080;28;20556;-54
2022/06/26 14:38:01;;;;;;;3.43;2.60;;;;;;;;;;5079083;28;20224;-55
2022/06/26 14:40:27;;;;;;;3.40;2.43;;;;;;;;;;5085518;28;20184;-54
2022/06/26 14:42:53;;;;;;;2.47;2.27;;;;;;;;;;5080221;28;20655;-54
2022/06/26 14:45:19;;;;;;;2.63;2.37;;;;;;;;;;5080705;28;20172;-54
2022/06/26 14:47:45;;;;;;;3.13;2.57;;;;;;;;;;5087115;28;20196;-54
2022/06/26 14:50:11;;;;;;;2.70;2.50;;;;;;;;;;5056992;28;20199;-54
2022/06/26 14:52:38;;;;;;;3.00;2.70;;;;;;;;;;5081559;28;20235;-53
2022/06/26 14:55:04;;;;;;;2.83;2.50;;;;;;;;;;5051967;28;20198;-54
2022/06/26 14:57:31;;;;;;;3.63;2.87;;;;;;;;;;5086250;28;20745;-54
2022/06/26 14:59:57;;;;;;;7.23;2.80;;;;;;;;;;5074372;28;20176;-53
2022/06/26 15:02:23;;;;;;;2.93;2.53;;;;;;;;;;5083869;28;20676;-54